createdAt,value
2018-03-25T00:01:49.509Z,100323.22
2018-03-25T00:04:15.576Z,100322.87
2018-03-25T00:06:41.686Z,100319.57
2018-03-25T00:09:07.788Z,100320.95
2018-03-25T00:11:33.850Z,100324.66
2018-03-25T00:13:59.961Z,100327.06
2018-03-25T00:16:26.061Z,100326.83
2018-03-25T00:18:52.131Z,100328.93
2018-03-25T00:21:18.251Z,100328.16
2018-03-25T00:23:44.338Z,100325.75
2018-03-25T00:26:10.393Z,100323.78
2018-03-25T00:28:36.402Z,100322.88
2018-03-25T00:31:02.569Z,100319.70
2018-03-25T00:33:28.615Z,100323.66
2018-03-25T00:35:54.657Z,100327.78
2018-03-25T00:38:21.474Z,100331.98
2018-03-25T00:40:47.490Z,100333.36
2018-03-25T00:43:13.488Z,100335.94
2018-03-25T00:45:39.709Z,100334.44
2018-03-25T00:48:05.900Z,100329.81
2018-03-25T00:50:31.948Z,100330.78
2018-03-25T00:52:57.970Z,100329.22
2018-03-25T00:55:24.033Z,100332.03
2018-03-25T00:57:50.115Z,100331.73
2018-03-25T01:00:16.198Z,100332.27
2018-03-25T01:02:42.213Z,100337.49
2018-03-25T01:05:08.260Z,100340.19
2018-03-25T01:07:34.287Z,100340.42
2018-03-25T01:10:00.372Z,100345.53
2018-03-25T01:12:26.395Z,100344.39
2018-03-25T01:14:52.445Z,100349.01
2018-03-25T01:17:19.124Z,100347.45
2018-03-25T01:19:45.319Z,100354.47
2018-03-25T01:22:11.471Z,100352.66
2018-03-25T01:24:37.549Z,100354.64
2018-03-25T01:27:03.674Z,100352.30
2018-03-25T01:29:29.821Z,100354.70
2018-03-25T01:31:55.886Z,100353.55
2018-03-25T01:34:21.895Z,100357.94
2018-03-25T01:36:47.898Z,100352.47
2018-03-25T01:39:13.909Z,100353.16
2018-03-25T01:41:39.927Z,100353.64
2018-03-25T01:44:05.933Z,100349.73
2018-03-25T01:46:31.937Z,100357.18
2018-03-25T01:48:57.998Z,100352.02
2018-03-25T01:51:24.078Z,100357.48
2018-03-25T01:53:50.152Z,100358.86
2018-03-25T01:56:16.210Z,100358.47
2018-03-25T01:58:42.283Z,100361.00
2018-03-25T02:01:08.304Z,100364.66
2018-03-25T02:03:34.335Z,100359.45
2018-03-25T02:06:00.412Z,100354.65
2018-03-25T02:08:26.553Z,100362.39
2018-03-25T02:10:52.591Z,100361.81
2018-03-25T02:13:18.813Z,100372.92
2018-03-25T02:15:44.826Z,100370.16
2018-03-25T02:18:10.958Z,100371.34
2018-03-25T02:20:37.687Z,100376.95
2018-03-25T02:23:03.719Z,100381.33
2018-03-25T02:25:29.850Z,100383.00
2018-03-25T02:27:55.914Z,100379.22
2018-03-25T02:30:21.926Z,100376.27
2018-03-25T02:32:47.976Z,100372.19
2018-03-25T02:35:14.029Z,100373.98
2018-03-25T02:37:40.034Z,100372.30
2018-03-25T02:40:06.210Z,100378.06
2018-03-25T02:42:32.254Z,100378.36
2018-03-25T02:44:58.320Z,100377.58
2018-03-25T02:47:24.374Z,100381.00
2018-03-25T02:49:50.444Z,100382.45
2018-03-25T02:52:16.562Z,100388.56
2018-03-25T02:54:42.631Z,100382.50
2018-03-25T02:57:08.781Z,100388.81
2018-03-25T02:59:34.880Z,100388.52
2018-03-25T03:02:00.920Z,100400.28
2018-03-25T03:04:27.070Z,100394.27
2018-03-25T03:06:53.746Z,100390.84
2018-03-25T03:09:19.877Z,100393.73
2018-03-25T03:11:45.901Z,100395.23
2018-03-25T03:14:11.947Z,100398.19
2018-03-25T03:16:37.975Z,100396.93
2018-03-25T03:19:04.007Z,100393.63
2018-03-25T03:21:30.058Z,100397.35
2018-03-25T03:23:56.108Z,100400.78
2018-03-25T03:26:22.149Z,100401.08
2018-03-25T03:28:48.177Z,100400.30
2018-03-25T03:31:14.214Z,100403.84
2018-03-25T03:33:40.280Z,100407.80
2018-03-25T03:36:06.319Z,100409.24
2018-03-25T03:38:32.315Z,100413.50
2018-03-25T03:40:58.314Z,100417.53
2018-03-25T03:43:24.380Z,100420.17
2018-03-25T03:45:50.463Z,100421.25
2018-03-25T03:48:16.471Z,100423.47
2018-03-25T03:50:42.518Z,100423.38
2018-03-25T03:53:08.575Z,100426.35
2018-03-25T03:55:34.652Z,100424.83
2018-03-25T03:58:00.767Z,100422.72
2018-03-25T04:00:26.849Z,100425.39
2018-03-25T04:02:52.885Z,100423.95
2018-03-25T04:05:19.006Z,100421.13
2018-03-25T04:07:45.104Z,100424.43
2018-03-25T04:10:11.215Z,100429.41
2018-03-25T04:12:37.222Z,100429.95
2018-03-25T04:15:03.424Z,100438.34
2018-03-25T04:17:29.502Z,100432.05
2018-03-25T04:19:55.533Z,100436.78
2018-03-25T04:22:21.569Z,100432.70
2018-03-25T04:24:47.571Z,100435.23
2018-03-25T04:27:13.858Z,100439.80
2018-03-25T04:29:39.958Z,100443.40
2018-03-25T04:32:05.975Z,100443.94
2018-03-25T04:34:31.976Z,100444.59
2018-03-25T04:36:58.055Z,100449.22
2018-03-25T04:39:24.082Z,100453.66
2018-03-25T04:41:50.116Z,100452.02
2018-03-25T04:44:16.155Z,100452.22
2018-03-25T04:46:42.163Z,100451.50
2018-03-25T04:49:08.261Z,100455.05
2018-03-25T04:51:34.290Z,100452.10
2018-03-25T04:54:00.346Z,100457.69
2018-03-25T04:56:26.371Z,100453.72
2018-03-25T04:58:52.471Z,100462.00
2018-03-25T05:01:18.508Z,100457.77
2018-03-25T05:03:44.522Z,100463.59
2018-03-25T05:06:10.531Z,100462.56
2018-03-25T05:08:36.522Z,100462.27
2018-03-25T05:11:02.615Z,100466.16
2018-03-25T05:13:28.618Z,100468.85
2018-03-25T05:15:54.608Z,100468.61
2018-03-25T05:18:20.631Z,100475.16
2018-03-25T05:20:46.685Z,100474.67
2018-03-25T05:23:12.771Z,100477.43
2018-03-25T05:25:38.862Z,100471.09
2018-03-25T05:28:04.905Z,100481.90
2018-03-25T05:30:30.949Z,100483.58
2018-03-25T05:32:56.961Z,100478.70
2018-03-25T05:35:23.083Z,100487.11
2018-03-25T05:37:49.199Z,100487.34
2018-03-25T05:40:15.272Z,100488.42
2018-03-25T05:42:41.316Z,100490.88
2018-03-25T05:45:07.450Z,100488.05
2018-03-25T05:47:33.557Z,100490.33
2018-03-25T05:49:59.610Z,100498.03
2018-03-25T05:52:25.713Z,100504.75
2018-03-25T05:54:51.798Z,100503.70
2018-03-25T05:57:17.961Z,100508.92
2018-03-25T05:59:44.000Z,100512.94
2018-03-25T06:02:10.034Z,100515.14
2018-03-25T06:04:36.095Z,100520.34
2018-03-25T06:07:02.121Z,100528.21
2018-03-25T06:09:28.186Z,100527.35
2018-03-25T06:11:54.255Z,100526.66
2018-03-25T06:14:20.294Z,100538.06
2018-03-25T06:16:46.331Z,100535.63
2018-03-25T06:19:12.414Z,100532.60
2018-03-25T06:21:38.463Z,100547.50
2018-03-25T06:24:04.525Z,100557.58
2018-03-25T06:26:30.585Z,100555.39
2018-03-25T06:28:56.650Z,100562.66
2018-03-25T06:31:22.706Z,100577.30
2018-03-25T06:33:48.730Z,100577.69
2018-03-25T06:36:14.758Z,100582.27
2018-03-25T06:38:40.837Z,100575.72
2018-03-25T06:41:06.924Z,100587.09
2018-03-25T06:43:32.956Z,100591.88
2018-03-25T06:45:59.765Z,100588.80
2018-03-25T06:48:25.792Z,100601.02
2018-03-25T06:50:51.814Z,100600.80
2018-03-25T06:53:17.891Z,100604.19
2018-03-25T06:55:43.921Z,100604.59
2018-03-25T06:58:09.908Z,100603.81
2018-03-25T07:00:35.964Z,100600.55
2018-03-25T07:03:02.030Z,100612.64
2018-03-25T07:05:28.039Z,100605.14
2018-03-25T07:07:54.050Z,100611.05
2018-03-25T07:10:20.073Z,100617.41
2018-03-25T07:12:46.121Z,100628.12
2018-03-25T07:15:12.190Z,100626.91
2018-03-25T07:17:38.242Z,100628.45
2018-03-25T07:20:04.997Z,100630.81
2018-03-25T07:22:31.187Z,100632.23
2018-03-25T07:24:57.279Z,100641.34
2018-03-25T07:27:23.294Z,100643.06
2018-03-25T07:29:49.385Z,100641.02
2018-03-25T07:32:15.551Z,100638.66
2018-03-25T07:34:41.649Z,100641.85
2018-03-25T07:37:07.703Z,100650.38
2018-03-25T07:39:33.710Z,100653.77
2018-03-25T07:41:59.987Z,100655.77
2018-03-25T07:44:26.054Z,100655.27
2018-03-25T07:46:52.109Z,100664.53
2018-03-25T07:49:18.120Z,100661.87
2018-03-25T07:51:44.108Z,100662.28
2018-03-25T07:54:10.161Z,100668.34
2018-03-25T07:56:36.171Z,100671.07
2018-03-25T07:59:02.186Z,100676.24
2018-03-25T08:01:28.246Z,100681.16
2018-03-25T08:03:54.344Z,100689.08
2018-03-25T08:06:20.326Z,100689.33
2018-03-25T08:08:46.327Z,100688.49
2018-03-25T08:11:12.318Z,100689.34
2018-03-25T08:13:38.368Z,100691.32
2018-03-25T08:16:04.382Z,100696.20
2018-03-25T08:18:30.390Z,100695.33
2018-03-25T08:20:56.493Z,100704.17
2018-03-25T08:23:22.483Z,100695.79
2018-03-25T08:25:48.571Z,100696.72
2018-03-25T08:28:14.811Z,100697.62
2018-03-25T08:30:40.854Z,100702.97
2018-03-25T08:33:06.999Z,100705.55
2018-03-25T08:35:33.126Z,100709.28
2018-03-25T08:37:59.322Z,100708.48
2018-03-25T08:40:25.302Z,100712.92
2018-03-25T08:42:51.419Z,100710.77
2018-03-25T08:45:17.566Z,100715.39
2018-03-25T08:47:43.681Z,100721.49
2018-03-25T08:50:09.742Z,100725.49
2018-03-25T08:52:35.797Z,100727.52
2018-03-25T08:55:01.959Z,100730.00
2018-03-25T08:57:28.058Z,100734.08
2018-03-25T08:59:54.186Z,100727.78
2018-03-25T09:02:20.226Z,100727.45
2018-03-25T09:04:46.259Z,100734.98
2018-03-25T09:07:12.302Z,100735.50
2018-03-25T09:09:38.428Z,100737.41
2018-03-25T09:12:04.455Z,100739.37
2018-03-25T09:14:30.515Z,100740.58
2018-03-25T09:16:56.566Z,100746.23
2018-03-25T09:19:22.578Z,100741.56
2018-03-25T09:21:48.631Z,100740.41
2018-03-25T09:24:14.654Z,100738.67
2018-03-25T09:26:40.649Z,100746.35
2018-03-25T09:29:06.693Z,100743.11
2018-03-25T09:31:32.826Z,100747.09
2018-03-25T09:33:58.929Z,100745.25
2018-03-25T09:36:24.913Z,100753.36
2018-03-25T09:38:51.930Z,100752.72
2018-03-25T09:41:18.003Z,100759.33
2018-03-25T09:43:44.056Z,100752.77
2018-03-25T09:46:10.106Z,100758.31
2018-03-25T09:48:36.187Z,100764.37
2018-03-25T09:51:02.382Z,100765.22
2018-03-25T09:53:28.447Z,100766.53
2018-03-25T09:55:55.029Z,100759.40
2018-03-25T09:58:21.138Z,100763.69
2018-03-25T10:00:48.223Z,100765.72
2018-03-25T10:03:15.459Z,100771.55
2018-03-25T10:05:41.518Z,100778.15
2018-03-25T10:08:07.668Z,100781.66
2018-03-25T10:10:33.701Z,100781.21
2018-03-25T10:12:59.738Z,100781.34
2018-03-25T10:15:25.801Z,100784.27
2018-03-25T10:17:51.866Z,100788.73
2018-03-25T10:20:17.903Z,100794.92
2018-03-25T10:22:43.914Z,100793.88
2018-03-25T10:25:10.798Z,100796.69
2018-03-25T10:27:36.966Z,100790.59
2018-03-25T10:30:03.050Z,100794.27
2018-03-25T10:32:29.092Z,100794.00
2018-03-25T10:34:55.131Z,100794.44
2018-03-25T10:37:21.253Z,100795.09
2018-03-25T10:39:47.347Z,100804.13
2018-03-25T10:42:13.503Z,100797.43
2018-03-25T10:44:39.518Z,100792.09
2018-03-25T10:47:05.618Z,100797.48
2018-03-25T10:49:31.770Z,100800.63
2018-03-25T10:51:57.884Z,100798.73
2018-03-25T10:54:23.911Z,100797.94
2018-03-25T10:56:49.945Z,100812.44
2018-03-25T10:59:16.054Z,100812.23
2018-03-25T11:01:42.058Z,100813.17
2018-03-25T11:04:08.168Z,100815.27
2018-03-25T11:06:34.252Z,100808.62
2018-03-25T11:09:00.267Z,100814.00
2018-03-25T11:11:26.318Z,100808.84
2018-03-25T11:13:52.360Z,100809.20
2018-03-25T11:16:18.377Z,100813.52
2018-03-25T11:18:44.397Z,100817.52
2018-03-25T11:21:10.449Z,100826.06
2018-03-25T11:23:36.490Z,100837.37
2018-03-25T11:26:03.292Z,100830.66
2018-03-25T11:28:29.446Z,100827.75
2018-03-25T11:30:56.463Z,100824.81
2018-03-25T11:33:22.478Z,100825.91
2018-03-25T11:35:48.552Z,100829.55
2018-03-25T11:38:14.584Z,100827.45
2018-03-25T11:40:40.614Z,100829.28
2018-03-25T11:43:06.654Z,100834.63
2018-03-25T11:45:32.671Z,100844.20
2018-03-25T11:47:58.715Z,100839.63
2018-03-25T11:50:24.921Z,100833.72
2018-03-25T11:52:50.961Z,100839.61
2018-03-25T11:55:16.963Z,100834.17
2018-03-25T11:57:43.088Z,100834.33
2018-03-25T12:00:09.213Z,100836.48
2018-03-25T12:02:35.398Z,100839.91
2018-03-25T12:05:01.427Z,100833.13
2018-03-25T12:07:27.470Z,100838.78
2018-03-25T12:09:53.630Z,100844.89
2018-03-25T12:12:19.817Z,100850.44
2018-03-25T12:14:45.939Z,100839.78
2018-03-25T12:17:11.958Z,100850.00
2018-03-25T12:19:37.989Z,100853.89
2018-03-25T12:22:05.025Z,100848.09
2018-03-25T12:24:39.088Z,100847.36
2018-03-25T12:27:05.707Z,100851.14
2018-03-25T12:29:31.924Z,100854.36
2018-03-25T12:31:57.949Z,100851.82
2018-03-25T12:34:23.967Z,100852.88
2018-03-25T12:36:50.000Z,100866.78
2018-03-25T12:39:16.074Z,100867.01
2018-03-25T12:41:42.167Z,100872.97
2018-03-25T12:44:08.145Z,100874.97
2018-03-25T12:46:34.238Z,100867.44
2018-03-25T12:49:00.253Z,100872.42
2018-03-25T12:51:26.260Z,100867.83
2018-03-25T12:53:52.296Z,100872.56
2018-03-25T12:56:18.343Z,100876.36
2018-03-25T12:58:44.427Z,100880.22
2018-03-25T13:01:10.459Z,100880.40
2018-03-25T13:03:36.495Z,100885.43
2018-03-25T13:06:02.515Z,100883.51
2018-03-25T13:08:28.534Z,100891.16
2018-03-25T13:10:54.561Z,100889.32
2018-03-25T13:13:20.870Z,100886.31
2018-03-25T13:15:46.872Z,100888.02
2018-03-25T13:18:12.880Z,100882.93
2018-03-25T13:20:39.066Z,100885.13
2018-03-25T13:23:05.383Z,100884.47
2018-03-25T13:25:31.573Z,100883.73
2018-03-25T13:27:57.626Z,100886.98
2018-03-25T13:30:23.627Z,100883.42
2018-03-25T13:32:49.655Z,100889.32
2018-03-25T13:35:15.754Z,100887.47
2018-03-25T13:37:41.782Z,100891.14
2018-03-25T13:40:07.838Z,100890.20
2018-03-25T13:42:33.926Z,100885.98
2018-03-25T13:45:00.013Z,100890.80
2018-03-25T13:47:26.180Z,100886.68
2018-03-25T13:49:52.138Z,100897.25
2018-03-25T13:52:18.155Z,100899.19
2018-03-25T13:54:44.177Z,100898.69
2018-03-25T13:57:10.310Z,100905.91
2018-03-25T13:59:36.354Z,100902.23
2018-03-25T14:02:03.012Z,100906.36
2018-03-25T14:04:29.195Z,100903.95
2018-03-25T14:06:55.306Z,100904.03
2018-03-25T14:09:21.431Z,100908.93
2018-03-25T14:11:47.553Z,100896.66
2018-03-25T14:14:13.690Z,100900.23
2018-03-25T14:16:39.764Z,100900.69
2018-03-25T14:19:05.931Z,100902.58
2018-03-25T14:21:31.969Z,100902.50
2018-03-25T14:23:58.078Z,100895.97
2018-03-25T14:26:24.125Z,100894.25
2018-03-25T14:28:50.162Z,100897.22
2018-03-25T14:31:16.220Z,100899.95
2018-03-25T14:33:42.291Z,100900.29
2018-03-25T14:36:08.326Z,100894.75
2018-03-25T14:38:34.354Z,100896.55
2018-03-25T14:41:00.451Z,100900.57
2018-03-25T14:43:27.222Z,100903.83
2018-03-25T14:45:53.413Z,100905.36
2018-03-25T14:48:20.067Z,100902.05
2018-03-25T14:50:46.082Z,100900.00
2018-03-25T14:53:12.137Z,100904.93
2018-03-25T14:55:38.201Z,100909.06
2018-03-25T14:58:04.255Z,100910.27
2018-03-25T15:00:30.302Z,100917.78
2018-03-25T15:02:56.325Z,100911.67
2018-03-25T15:05:22.396Z,100915.25
2018-03-25T15:07:48.395Z,100910.95
2018-03-25T15:10:14.498Z,100915.11
2018-03-25T15:12:40.623Z,100917.95
2018-03-25T15:15:06.791Z,100925.23
2018-03-25T15:17:32.860Z,100920.97
2018-03-25T15:19:58.948Z,100929.41
2018-03-25T15:22:25.024Z,100923.13
2018-03-25T15:24:51.154Z,100925.05
2018-03-25T15:27:17.407Z,100927.31
2018-03-25T15:29:43.642Z,100928.63
2018-03-25T15:32:09.765Z,100931.75
2018-03-25T15:34:35.917Z,100931.47
2018-03-25T15:37:02.076Z,100935.78
2018-03-25T15:39:28.148Z,100933.65
2018-03-25T15:41:54.369Z,100931.53
2018-03-25T15:44:20.411Z,100935.75
2018-03-25T15:46:46.538Z,100938.92
2018-03-25T15:49:12.556Z,100937.90
2018-03-25T15:51:38.654Z,100941.56
2018-03-25T15:54:04.961Z,100942.84
2018-03-25T15:56:31.620Z,100942.69
2018-03-25T15:58:57.673Z,100942.16
2018-03-25T16:01:23.890Z,100945.55
2018-03-25T16:03:49.940Z,100954.33
2018-03-25T16:06:16.037Z,100953.64
2018-03-25T16:08:42.039Z,100958.13
2018-03-25T16:11:08.106Z,100957.28
2018-03-25T16:13:34.122Z,100955.00
2018-03-25T16:16:00.152Z,100954.58
2018-03-25T16:18:26.342Z,100957.25
2018-03-25T16:20:52.329Z,100965.06
2018-03-25T16:23:18.559Z,100969.00
2018-03-25T16:25:44.738Z,100967.17
2018-03-25T16:28:10.973Z,100967.83
2018-03-25T16:30:37.095Z,100962.56
2018-03-25T16:33:03.138Z,100969.63
2018-03-25T16:35:29.148Z,100978.29
2018-03-25T16:37:55.322Z,100967.12
2018-03-25T16:42:35.359Z,100972.46
2018-03-25T16:45:02.339Z,100972.52
2018-03-25T16:47:28.512Z,100978.56
2018-03-25T16:49:54.626Z,100978.91
2018-03-25T16:52:20.726Z,100972.84
2018-03-25T16:54:46.859Z,100981.66
2018-03-25T16:57:12.985Z,100981.64
2018-03-25T16:59:39.138Z,100990.86
2018-03-25T17:02:05.259Z,100990.36
2018-03-25T17:04:31.500Z,100992.78
2018-03-25T17:06:57.592Z,100994.81
2018-03-25T17:09:23.679Z,101000.07
2018-03-25T17:11:49.926Z,101004.78
2018-03-25T17:14:16.051Z,101005.86
2018-03-25T17:16:42.236Z,101006.08
2018-03-25T17:19:08.361Z,101012.20
2018-03-25T17:21:34.550Z,101009.60
2018-03-25T17:24:00.616Z,101014.45
2018-03-25T17:26:26.741Z,101024.98
2018-03-25T17:28:52.812Z,101021.97
2018-03-25T17:31:18.871Z,101025.55
2018-03-25T17:33:44.898Z,101028.34
2018-03-25T17:36:10.889Z,101034.34
2018-03-25T17:38:36.974Z,101039.50
2018-03-25T17:41:03.119Z,101045.19
2018-03-25T17:43:29.354Z,101040.98
2018-03-25T17:45:55.459Z,101040.70
2018-03-25T17:48:21.605Z,101042.45
2018-03-25T17:50:47.749Z,101046.90
2018-03-25T17:53:13.870Z,101053.84
2018-03-25T17:55:39.948Z,101050.76
2018-03-25T17:58:05.974Z,101053.23
2018-03-25T18:00:32.085Z,101055.55
2018-03-25T18:02:58.214Z,101062.91
2018-03-25T18:05:24.333Z,101059.40
2018-03-25T18:07:50.502Z,101065.03
2018-03-25T18:10:23.459Z,101064.39
2018-03-25T18:12:49.479Z,101072.44
2018-03-25T18:15:15.494Z,101077.11
2018-03-25T18:17:41.616Z,101089.77
2018-03-25T18:20:07.890Z,101091.45
2018-03-25T18:22:33.970Z,101095.84
2018-03-25T18:24:59.991Z,101098.23
2018-03-25T18:27:26.230Z,101104.50
2018-03-25T18:29:52.345Z,101104.22
2018-03-25T18:32:18.458Z,101103.91
2018-03-25T18:34:44.514Z,101109.91
2018-03-25T18:37:10.565Z,101111.27
2018-03-25T18:39:36.708Z,101114.48
2018-03-25T18:42:02.853Z,101117.23
2018-03-25T18:44:28.997Z,101124.45
2018-03-25T18:46:55.240Z,101123.74
2018-03-25T18:49:21.480Z,101119.95
2018-03-25T18:51:47.681Z,101127.52
2018-03-25T18:54:13.855Z,101126.87
2018-03-25T18:56:40.052Z,101127.56
2018-03-25T18:59:06.253Z,101141.36
2018-03-25T19:01:32.304Z,101142.69
2018-03-25T19:03:58.390Z,101143.97
2018-03-25T19:06:24.533Z,101147.80
2018-03-25T19:08:50.655Z,101147.75
2018-03-25T19:11:16.798Z,101154.68
2018-03-25T19:13:42.901Z,101157.83
2018-03-25T19:16:09.112Z,101165.98
2018-03-25T19:18:35.211Z,101165.56
2018-03-25T19:21:02.338Z,101161.22
2018-03-25T19:23:28.509Z,101164.34
2018-03-25T19:25:54.715Z,101167.59
2018-03-25T19:28:20.964Z,101165.72
2018-03-25T19:30:47.111Z,101168.45
2018-03-25T19:33:13.138Z,101167.86
2018-03-25T19:35:39.240Z,101173.55
2018-03-25T19:38:05.474Z,101184.22
2018-03-25T19:40:31.753Z,101172.45
2018-03-25T19:42:57.854Z,101174.06
2018-03-25T19:45:24.097Z,101173.05
2018-03-25T19:47:50.226Z,101172.07
2018-03-25T19:50:16.370Z,101175.31
2018-03-25T19:52:42.606Z,101174.19
2018-03-25T19:55:09.623Z,101177.73
2018-03-25T19:57:36.526Z,101185.98
2018-03-25T20:00:03.655Z,101179.05
2018-03-25T20:02:30.498Z,101188.67
2018-03-25T20:04:56.723Z,101188.12
2018-03-25T20:07:22.915Z,101201.48
2018-03-25T20:09:49.027Z,101204.08
2018-03-25T20:12:15.006Z,101204.91
2018-03-25T20:14:41.252Z,101203.29
2018-03-25T20:17:07.367Z,101204.31
2018-03-25T20:19:33.481Z,101208.45
2018-03-25T20:21:59.650Z,101199.36
2018-03-25T20:24:25.930Z,101202.83
2018-03-25T20:26:52.065Z,101208.53
2018-03-25T20:29:18.164Z,101211.91
2018-03-25T20:31:44.663Z,101208.61
2018-03-25T20:34:10.722Z,101209.52
2018-03-25T20:36:36.810Z,101215.66
2018-03-25T20:39:02.917Z,101215.64
2018-03-25T20:41:28.961Z,101219.50
2018-03-25T20:43:55.086Z,101226.60
2018-03-25T20:46:21.127Z,101220.94
2018-03-25T20:48:47.390Z,101218.68
2018-03-25T20:51:13.746Z,101217.47
2018-03-25T20:53:39.924Z,101224.71
2018-03-25T20:56:06.386Z,101223.19
2018-03-25T20:58:32.406Z,101223.56
2018-03-25T21:00:58.426Z,101225.27
2018-03-25T21:03:24.431Z,101230.30
2018-03-25T21:05:50.457Z,101232.72
2018-03-25T21:08:16.494Z,101231.22
2018-03-25T21:10:42.602Z,101230.03
2018-03-25T21:13:08.593Z,101235.56
2018-03-25T21:15:35.277Z,101237.14
2018-03-25T21:18:01.335Z,101241.48
2018-03-25T21:20:27.410Z,101239.94
2018-03-25T21:22:53.446Z,101243.27
2018-03-25T21:25:19.451Z,101245.12
2018-03-25T21:27:45.675Z,101247.91
2018-03-25T21:30:11.686Z,101245.31
2018-03-25T21:32:37.710Z,101243.47
2018-03-25T21:35:03.863Z,101253.36
2018-03-25T21:37:30.008Z,101254.28
2018-03-25T21:39:56.063Z,101254.67
2018-03-25T21:42:22.053Z,101257.27
2018-03-25T21:44:48.126Z,101251.92
2018-03-25T21:47:14.165Z,101254.77
2018-03-25T21:49:40.206Z,101255.78
2018-03-25T21:52:06.214Z,101261.02
2018-03-25T21:54:32.311Z,101257.37
2018-03-25T21:56:58.315Z,101264.86
2018-03-25T21:59:24.322Z,101260.52
2018-03-25T22:01:50.339Z,101260.25
2018-03-25T22:04:16.375Z,101258.44
2018-03-25T22:06:42.373Z,101267.73
2018-03-25T22:09:08.383Z,101265.80
2018-03-25T22:11:34.366Z,101266.39
2018-03-25T22:14:00.387Z,101262.78
2018-03-25T22:16:26.401Z,101264.77
2018-03-25T22:18:58.431Z,101266.98
2018-03-25T22:21:24.479Z,101256.20
2018-03-25T22:23:50.506Z,101257.03
2018-03-25T22:26:16.541Z,101253.45
2018-03-25T22:28:42.577Z,101256.87
2018-03-25T22:31:08.574Z,101252.11
2018-03-25T22:33:34.622Z,101250.41
2018-03-25T22:36:00.629Z,101262.11
2018-03-25T22:38:27.221Z,101263.33
2018-03-25T22:40:53.256Z,101262.20
2018-03-25T22:43:19.376Z,101258.59
2018-03-25T22:45:45.437Z,101255.81
2018-03-25T22:48:11.613Z,101258.84
2018-03-25T22:50:37.781Z,101256.70
2018-03-25T22:53:03.944Z,101268.44
2018-03-25T22:55:29.999Z,101264.77
2018-03-25T22:57:56.026Z,101272.48
2018-03-25T23:00:22.125Z,101259.00
2018-03-25T23:02:48.142Z,101266.25
2018-03-25T23:05:14.207Z,101263.23
2018-03-25T23:07:40.223Z,101270.23
2018-03-25T23:10:06.246Z,101271.98
2018-03-25T23:12:32.235Z,101266.80
2018-03-25T23:14:58.262Z,101269.25
2018-03-25T23:17:24.291Z,101266.23
2018-03-25T23:19:50.284Z,101263.31
2018-03-25T23:22:16.273Z,101263.74
2018-03-25T23:24:42.297Z,101262.19
2018-03-25T23:27:08.291Z,101262.51
2018-03-25T23:29:34.311Z,101266.98
2018-03-25T23:32:00.342Z,101263.08
2018-03-25T23:34:26.354Z,101264.20
2018-03-25T23:36:52.412Z,101261.99
2018-03-25T23:39:18.423Z,101260.53
2018-03-25T23:41:44.439Z,101264.02
2018-03-25T23:44:10.422Z,101264.20
2018-03-25T23:46:36.462Z,101264.25
2018-03-25T23:49:02.463Z,101269.86
2018-03-25T23:51:28.461Z,101258.32
2018-03-25T23:53:54.472Z,101265.44
2018-03-25T23:56:20.481Z,101269.58
2018-03-25T23:58:46.497Z,101268.17
